Time,TemperatureF,DewpointF,PressureIn,WindDirection,WindDirectionDegrees,WindSpeedMPH,WindSpeedGustMPH,Humidity,HourlyPrecipIn,Conditions,Clouds,dailyrainin,SolarRadiationWatts/m^2,SoftwareType,DateUTC
2013-02-20 00:00:00,37.7,33.6,30.07,SE,135,3.0,10.0,85,0.00,OVC,OVC,0.00,0.0,WeatherDisplay:10.37,2013-02-20 00:00:00,
2013-02-20 00:30:00,36.1,33.7,30.07,ESE,112,1.0,11.0,91,0.00,OVC,OVC,0.00,0.0,WeatherDisplay:10.37,2013-02-20 00:30:00,
2013-02-20 01:00:00,36.4,34.5,30.08,SE,135,2.0,9.0,93,0.00,OVC,OVC,0.00,0.0,WeatherDisplay:10.37,2013-02-20 01:00:00,
2013-02-20 01:30:00,36.8,34.9,30.08,ESE,112,2.0,7.0,93,0.00,OVC,OVC,0.00,0.0,WeatherDisplay:10.37,2013-02-20 01:30:00,
2013-02-20 02:00:00,37.2,35.3,30.09,East,90,1.0,7.0,93,0.00,OVC,OVC,0.00,0.0,WeatherDisplay:10.37,2013-02-20 02:00:00,
2013-02-20 02:30:00,37.0,35.1,30.10,SE,135,0.0,7.0,93,0.00,OVC,OVC,0.00,0.0,WeatherDisplay:10.37,2013-02-20 02:30:00,
2013-02-20 03:00:00,37.3,35.2,30.10,ESE,112,1.0,7.0,92,0.00,OVC,OVC,0.00,0.0,WeatherDisplay:10.37,2013-02-20 03:00:00,
2013-02-20 03:30:00,38.3,35.6,30.10,SSE,158,3.0,10.0,90,0.00,OVC,OVC,0.00,0.0,WeatherDisplay:10.37,2013-02-20 03:30:00,
2013-02-20 04:00:00,38.5,35.5,30.10,SSE,158,1.0,8.0,89,0.00,OVC,OVC,0.00,0.0,WeatherDisplay:10.37,2013-02-20 04:00:00,
2013-02-20 04:30:00,38.6,35.3,30.11,SSE,158,0.0,4.0,88,0.00,OVC,OVC,0.00,0.0,WeatherDisplay:10.37,2013-02-20 04:30:00,
2013-02-20 05:00:00,38.8,35.5,30.11,SSE,158,0.0,3.0,88,0.00,OVC,OVC,0.00,0.0,WeatherDisplay:10.37,2013-02-20 05:00:00,
2013-02-20 05:30:00,38.7,36.0,30.12,SSE,158,1.0,4.0,90,0.00,OVC,OVC,0.00,0.0,WeatherDisplay:10.37,2013-02-20 05:30:00,
2013-02-20 06:00:00,38.3,36.1,30.12,SSE,158,0.0,4.0,92,0.00,OVC,OVC,0.01,0.0,WeatherDisplay:10.37,2013-02-20 06:00:00,
2013-02-20 06:30:00,38.2,36.3,30.13,SSE,158,0.0,4.0,93,0.00,OVC,OVC,0.02,0.0,WeatherDisplay:10.37,2013-02-20 06:30:00,
2013-02-20 07:00:00,38.5,36.9,30.13,SSE,158,0.0,2.0,94,0.00,OVC,OVC,0.02,0.0,WeatherDisplay:10.37,2013-02-20 07:00:00,
2013-02-20 07:30:00,39.8,38.2,30.14,ESE,112,2.0,12.0,94,0.00,OVC,OVC,0.03,0.0,WeatherDisplay:10.37,2013-02-20 07:30:00,
2013-02-20 08:00:00,39.6,37.7,30.16,SE,135,3.0,12.0,93,0.00,OVC,OVC,0.03,2.0,WeatherDisplay:10.37,2013-02-20 08:00:00,
2013-02-20 08:30:00,39.2,36.8,30.17,SE,135,6.0,19.0,91,0.00,OVC,OVC,0.03,15.0,WeatherDisplay:10.37,2013-02-20 08:30:00,
2013-02-20 09:00:00,39.3,35.7,30.17,ESE,112,5.0,15.0,87,0.00,OVC,OVC,0.03,38.0,WeatherDisplay:10.37,2013-02-20 09:00:00,
2013-02-20 09:30:00,39.2,34.7,30.17,ESE,112,5.0,15.0,84,0.00,OVC,OVC,0.03,122.0,WeatherDisplay:10.37,2013-02-20 09:30:00,
2013-02-20 10:00:00,39.7,34.6,30.18,SE,135,6.0,15.0,82,0.00,OVC,OVC,0.03,207.0,WeatherDisplay:10.37,2013-02-20 10:00:00,
2013-02-20 10:30:00,39.4,33.7,30.19,ESE,112,3.0,14.0,80,0.00,OVC,OVC,0.03,62.0,WeatherDisplay:10.37,2013-02-20 10:30:00,
2013-02-20 11:00:00,39.1,32.5,30.19,ESE,112,3.0,14.0,77,0.00,OVC,OVC,0.03,124.0,WeatherDisplay:10.37,2013-02-20 11:00:00,
2013-02-20 11:30:00,38.8,31.2,30.20,ESE,112,6.0,16.0,74,0.00,OVC,OVC,0.03,206.0,WeatherDisplay:10.37,2013-02-20 11:30:00,
2013-02-20 12:00:00,39.6,31.3,30.20,ESE,112,6.0,15.0,72,0.00,OVC,OVC,0.03,347.0,WeatherDisplay:10.37,2013-02-20 12:00:00,
2013-02-20 12:30:00,39.9,30.9,30.20,ESE,112,6.0,15.0,70,0.00,OVC,OVC,0.03,488.0,WeatherDisplay:10.37,2013-02-20 12:30:00,
2013-02-20 13:00:00,40.8,30.3,30.19,SE,135,6.0,18.0,66,0.00,OVC,OVC,0.03,499.0,WeatherDisplay:10.37,2013-02-20 13:00:00,
2013-02-20 13:30:00,40.2,30.1,30.20,SE,135,7.0,19.0,67,0.00,OVC,OVC,0.03,414.0,WeatherDisplay:10.37,2013-02-20 13:30:00,
2013-02-20 14:00:00,40.2,30.1,30.19,ESE,112,5.0,17.0,67,0.00,OVC,OVC,0.03,410.0,WeatherDisplay:10.37,2013-02-20 14:00:00,
2013-02-20 14:30:00,40.0,29.9,30.19,SE,135,7.0,20.0,67,0.00,OVC,OVC,0.03,280.0,WeatherDisplay:10.37,2013-02-20 14:30:00,
2013-02-20 15:00:00,39.3,29.2,30.19,East,90,5.0,16.0,67,0.00,OVC,OVC,0.03,249.0,WeatherDisplay:10.37,2013-02-20 15:00:00,
2013-02-20 15:30:00,39.5,29.4,30.19,East,90,3.0,19.0,67,0.00,OVC,OVC,0.03,229.0,WeatherDisplay:10.37,2013-02-20 15:30:00,
2013-02-20 16:00:00,39.5,28.7,30.19,ESE,112,7.0,16.0,65,0.00,OVC,OVC,0.03,148.0,WeatherDisplay:10.37,2013-02-20 16:00:00,
2013-02-20 16:30:00,38.6,27.8,30.18,SE,135,6.0,19.0,65,0.00,OVC,OVC,0.03,74.0,WeatherDisplay:10.37,2013-02-20 16:30:00,
2013-02-20 17:00:00,38.3,28.3,30.19,East,90,3.0,15.0,67,0.00,OVC,OVC,0.03,30.0,WeatherDisplay:10.37,2013-02-20 17:00:00,
2013-02-20 17:30:00,36.8,27.9,30.19,ESE,112,5.0,17.0,70,0.00,OVC,OVC,0.03,11.0,WeatherDisplay:10.37,2013-02-20 17:30:00,
2013-02-20 18:00:00,36.1,27.6,30.20,SE,135,6.0,16.0,71,0.00,OVC,OVC,0.03,0.0,WeatherDisplay:10.37,2013-02-20 18:00:00,
2013-02-20 18:30:00,35.9,27.4,30.20,ESE,112,6.0,16.0,71,0.00,OVC,OVC,0.03,0.0,WeatherDisplay:10.37,2013-02-20 18:30:00,
2013-02-20 19:00:00,35.7,27.2,30.21,ESE,112,5.0,18.0,71,0.00,OVC,OVC,0.03,0.0,WeatherDisplay:10.37,2013-02-20 19:00:00,
2013-02-20 19:30:00,35.8,27.3,30.21,SE,135,7.0,19.0,71,0.00,OVC,OVC,0.03,0.0,WeatherDisplay:10.37,2013-02-20 19:30:00,
2013-02-20 20:00:00,35.9,27.7,30.22,ESE,112,6.0,20.0,72,0.00,OVC,OVC,0.03,0.0,WeatherDisplay:10.37,2013-02-20 20:00:00,
2013-02-20 20:30:00,35.5,27.0,30.22,ESE,112,6.0,16.0,71,0.00,OVC,OVC,0.03,0.0,WeatherDisplay:10.37,2013-02-20 20:30:00,
2013-02-20 21:00:00,35.6,27.1,30.22,ESE,112,3.0,15.0,71,0.00,OVC,OVC,0.03,0.0,WeatherDisplay:10.37,2013-02-20 21:00:00,
2013-02-20 21:30:00,35.9,27.4,30.23,SE,135,3.0,15.0,71,0.00,OVC,OVC,0.03,0.0,WeatherDisplay:10.37,2013-02-20 21:30:00,
2013-02-20 22:00:00,36.2,27.3,30.23,ESE,112,5.0,17.0,70,0.00,OVC,OVC,0.03,0.0,WeatherDisplay:10.37,2013-02-20 22:00:00,
2013-02-20 22:30:00,36.3,27.4,30.22,ESE,112,3.0,16.0,70,0.00,OVC,OVC,0.03,0.0,WeatherDisplay:10.37,2013-02-20 22:30:00,
2013-02-20 23:00:00,36.5,27.3,30.21,ESE,112,5.0,19.0,69,0.00,OVC,OVC,0.03,0.0,WeatherDisplay:10.37,2013-02-20 23:00:00,
2013-02-20 23:30:00,36.4,27.5,30.21,SE,135,3.0,15.0,70,0.00,OVC,OVC,0.03,0.0,WeatherDisplay:10.37,2013-02-20 23:30:00,